sensor_id;sensor_type;location;lat;lon;timestamp;P1;durP1;ratioP1;P2;durP2;ratioP2
21569;SDS011;57598;50.888;4.746;2024-01-16T06:34:55;58.45;;;54.67;;
21569;SDS011;57598;50.888;4.746;2024-01-16T06:37:23;63.70;;;59.20;;
21569;SDS011;57598;50.888;4.746;2024-01-16T06:39:50;59.83;;;55.83;;
21569;SDS011;57598;50.888;4.746;2024-01-16T06:42:18;60.85;;;56.53;;
21569;SDS011;57598;50.888;4.746;2024-01-16T06:44:47;56.67;;;52.95;;
21569;SDS011;57598;50.888;4.746;2024-01-16T06:47:18;60.08;;;55.00;;
21569;SDS011;57598;50.888;4.746;2024-01-16T06:49:49;56.90;;;53.03;;
21569;SDS011;57598;50.888;4.746;2024-01-16T06:55:15;55.50;;;51.80;;
21569;SDS011;57598;50.888;4.746;2024-01-16T06:57:52;56.00;;;52.17;;
21569;SDS011;57598;50.888;4.746;2024-01-16T07:00:28;55.65;;;51.95;;
21569;SDS011;57598;50.888;4.746;2024-01-16T07:03:00;55.05;;;51.40;;
21569;SDS011;57598;50.888;4.746;2024-01-16T07:05:29;55.78;;;52.10;;
21569;SDS011;57598;50.888;4.746;2024-01-16T07:07:56;54.50;;;51.00;;
21569;SDS011;57598;50.888;4.746;2024-01-16T07:10:27;57.88;;;54.17;;
21569;SDS011;57598;50.888;4.746;2024-01-16T07:12:55;55.78;;;51.95;;
21569;SDS011;57598;50.888;4.746;2024-01-16T07:15:23;54.97;;;51.25;;
21569;SDS011;57598;50.888;4.746;2024-01-16T07:17:52;54.55;;;50.83;;
21569;SDS011;57598;50.888;4.746;2024-01-16T07:20:21;52.78;;;49.47;;
21569;SDS011;57598;50.888;4.746;2024-01-16T07:22:49;57.58;;;53.60;;
21569;SDS011;57598;50.888;4.746;2024-01-16T07:25:17;53.35;;;49.95;;
21569;SDS011;57598;50.888;4.746;2024-01-16T07:27:48;58.13;;;54.08;;
21569;SDS011;57598;50.888;4.746;2024-01-16T07:30:16;53.25;;;49.85;;
21569;SDS011;57598;50.888;4.746;2024-01-16T07:32:44;53.55;;;49.78;;
21569;SDS011;57598;50.888;4.746;2024-01-16T07:35:13;51.85;;;48.55;;
21569;SDS011;57598;50.888;4.746;2024-01-16T07:37:43;57.22;;;53.15;;
21569;SDS011;57598;50.888;4.746;2024-01-16T07:40:11;54.63;;;50.10;;
21569;SDS011;57598;50.888;4.746;2024-01-16T07:42:41;53.53;;;49.97;;
21569;SDS011;57598;50.888;4.746;2024-01-16T07:45:10;54.03;;;50.53;;
21569;SDS011;57598;50.888;4.746;2024-01-16T07:47:40;52.80;;;49.10;;
21569;SDS011;57598;50.888;4.746;2024-01-16T07:50:09;54.20;;;49.75;;
21569;SDS011;57598;50.888;4.746;2024-01-16T07:52:37;54.45;;;50.33;;
21569;SDS011;57598;50.888;4.746;2024-01-16T07:55:17;51.85;;;48.47;;
21569;SDS011;57598;50.888;4.746;2024-01-16T07:57:45;51.38;;;48.03;;
21569;SDS011;57598;50.888;4.746;2024-01-16T08:00:15;50.10;;;46.75;;
21569;SDS011;57598;50.888;4.746;2024-01-16T08:02:43;50.43;;;47.13;;
21569;SDS011;57598;50.888;4.746;2024-01-16T08:05:11;50.17;;;46.88;;
21569;SDS011;57598;50.888;4.746;2024-01-16T08:07:42;49.63;;;46.42;;
21569;SDS011;57598;50.888;4.746;2024-01-16T08:10:20;49.75;;;46.47;;
21569;SDS011;57598;50.888;4.746;2024-01-16T08:12:48;50.28;;;46.97;;
21569;SDS011;57598;50.888;4.746;2024-01-16T08:15:17;50.58;;;47.17;;
21569;SDS011;57598;50.888;4.746;2024-01-16T08:17:44;49.95;;;46.60;;
21569;SDS011;57598;50.888;4.746;2024-01-16T08:20:11;47.97;;;44.85;;
21569;SDS011;57598;50.888;4.746;2024-01-16T08:22:39;47.95;;;44.85;;
21569;SDS011;57598;50.888;4.746;2024-01-16T08:25:06;48.70;;;45.30;;
21569;SDS011;57598;50.888;4.746;2024-01-16T08:27:33;48.08;;;44.95;;
21569;SDS011;57598;50.888;4.746;2024-01-16T08:30:02;48.50;;;45.40;;
21569;SDS011;57598;50.888;4.746;2024-01-16T08:32:32;45.47;;;42.60;;
21569;SDS011;57598;50.888;4.746;2024-01-16T08:34:59;46.45;;;43.40;;
21569;SDS011;57598;50.888;4.746;2024-01-16T08:37:27;45.08;;;41.85;;
21569;SDS011;57598;50.888;4.746;2024-01-16T08:39:54;46.13;;;43.03;;
21569;SDS011;57598;50.888;4.746;2024-01-16T08:42:22;44.28;;;41.38;;
21569;SDS011;57598;50.888;4.746;2024-01-16T09:18:44;39.67;;;37.17;;
21569;SDS011;57598;50.888;4.746;2024-01-16T09:21:24;39.55;;;36.80;;
21569;SDS011;57598;50.888;4.746;2024-01-16T09:24:11;38.28;;;35.88;;
21569;SDS011;57598;50.888;4.746;2024-01-16T09:26:56;37.22;;;34.92;;
21569;SDS011;57598;50.888;4.746;2024-01-16T09:30:07;38.30;;;36.00;;
21569;SDS011;57598;50.888;4.746;2024-01-16T09:42:38;34.85;;;32.85;;
21569;SDS011;57598;50.888;4.746;2024-01-16T09:45:08;34.70;;;32.60;;
21569;SDS011;57598;50.888;4.746;2024-01-16T09:54:02;30.38;;;28.48;;
21569;SDS011;57598;50.888;4.746;2024-01-16T10:09:35;25.23;;;23.83;;
21569;SDS011;57598;50.888;4.746;2024-01-16T10:12:16;27.05;;;25.25;;
21569;SDS011;57598;50.888;4.746;2024-01-16T10:14:48;26.40;;;24.50;;
21569;SDS011;57598;50.888;4.746;2024-01-16T10:23:55;26.02;;;24.33;;
21569;SDS011;57598;50.888;4.746;2024-01-16T10:26:40;24.35;;;22.77;;
21569;SDS011;57598;50.888;4.746;2024-01-16T10:29:10;23.48;;;22.08;;
21569;SDS011;57598;50.888;4.746;2024-01-16T10:31:46;24.13;;;22.58;;
21569;SDS011;57598;50.888;4.746;2024-01-16T10:34:19;23.85;;;22.08;;
21569;SDS011;57598;50.888;4.746;2024-01-16T10:36:49;24.00;;;22.33;;
21569;SDS011;57598;50.888;4.746;2024-01-16T10:39:18;23.13;;;21.50;;
21569;SDS011;57598;50.888;4.746;2024-01-16T10:41:55;23.80;;;22.17;;
21569;SDS011;57598;50.888;4.746;2024-01-16T10:44:27;24.58;;;22.98;;
21569;SDS011;57598;50.888;4.746;2024-01-16T10:50:07;23.55;;;22.15;;
21569;SDS011;57598;50.888;4.746;2024-01-16T10:52:49;22.92;;;21.52;;
21569;SDS011;57598;50.888;4.746;2024-01-16T10:55:23;23.52;;;21.92;;
21569;SDS011;57598;50.888;4.746;2024-01-16T10:58:00;23.70;;;21.88;;
21569;SDS011;57598;50.888;4.746;2024-01-16T11:00:44;23.48;;;22.08;;
21569;SDS011;57598;50.888;4.746;2024-01-16T11:03:28;23.10;;;21.55;;
21569;SDS011;57598;50.888;4.746;2024-01-16T11:06:10;23.40;;;21.80;;
21569;SDS011;57598;50.888;4.746;2024-01-16T11:09:00;24.33;;;22.55;;
21569;SDS011;57598;50.888;4.746;2024-01-16T11:11:30;27.08;;;22.50;;
21569;SDS011;57598;50.888;4.746;2024-01-16T11:14:11;24.17;;;22.67;;
21569;SDS011;57598;50.888;4.746;2024-01-16T11:16:40;23.13;;;21.40;;
21569;SDS011;57598;50.888;4.746;2024-01-16T11:19:09;22.65;;;21.25;;
21569;SDS011;57598;50.888;4.746;2024-01-16T11:21:38;22.55;;;21.25;;
21569;SDS011;57598;50.888;4.746;2024-01-16T11:24:12;23.52;;;21.92;;
21569;SDS011;57598;50.888;4.746;2024-01-16T11:26:41;22.63;;;21.23;;
21569;SDS011;57598;50.888;4.746;2024-01-16T11:32:09;22.38;;;20.83;;
21569;SDS011;57598;50.888;4.746;2024-01-16T11:35:00;22.58;;;21.25;;
21569;SDS011;57598;50.888;4.746;2024-01-16T11:37:32;21.90;;;20.50;;
21569;SDS011;57598;50.888;4.746;2024-01-16T11:40:26;22.00;;;20.60;;
21569;SDS011;57598;50.888;4.746;2024-01-16T11:46:00;22.00;;;20.60;;
21569;SDS011;57598;50.888;4.746;2024-01-16T11:54:48;21.70;;;20.40;;
21569;SDS011;57598;50.888;4.746;2024-01-16T12:00:04;21.80;;;20.50;;
21569;SDS011;57598;50.888;4.746;2024-01-16T12:02:49;22.35;;;21.05;;
21569;SDS011;57598;50.888;4.746;2024-01-16T12:05:19;22.48;;;21.17;;
21569;SDS011;57598;50.888;4.746;2024-01-16T12:07:53;22.80;;;21.40;;
21569;SDS011;57598;50.888;4.746;2024-01-16T12:10:27;24.30;;;22.33;;
21569;SDS011;57598;50.888;4.746;2024-01-16T12:12:58;24.38;;;22.02;;
21569;SDS011;57598;50.888;4.746;2024-01-16T13:06:10;24.15;;;22.42;;
21569;SDS011;57598;50.888;4.746;2024-01-16T13:08:45;21.77;;;20.38;;
21569;SDS011;57598;50.888;4.746;2024-01-16T13:11:25;22.50;;;20.77;;
21569;SDS011;57598;50.888;4.746;2024-01-16T13:14:00;22.92;;;21.42;;
21569;SDS011;57598;50.888;4.746;2024-01-16T13:16:43;21.90;;;20.55;;
21569;SDS011;57598;50.888;4.746;2024-01-16T13:25:34;23.40;;;21.95;;
21569;SDS011;57598;50.888;4.746;2024-01-16T13:28:02;39.72;;;22.25;;
21569;SDS011;57598;50.888;4.746;2024-01-16T13:30:40;22.52;;;21.13;;
21569;SDS011;57598;50.888;4.746;2024-01-16T13:33:28;23.70;;;21.90;;
21569;SDS011;57598;50.888;4.746;2024-01-16T13:36:19;23.45;;;21.38;;
21569;SDS011;57598;50.888;4.746;2024-01-16T13:54:22;21.30;;;20.00;;
21569;SDS011;57598;50.888;4.746;2024-01-16T13:56:55;21.73;;;20.33;;
21569;SDS011;57598;50.888;4.746;2024-01-16T14:07:10;21.10;;;19.80;;
21569;SDS011;57598;50.888;4.746;2024-01-16T14:09:39;21.00;;;19.80;;
21569;SDS011;57598;50.888;4.746;2024-01-16T14:12:07;22.90;;;20.85;;
21569;SDS011;57598;50.888;4.746;2024-01-16T14:14:35;20.75;;;19.55;;
21569;SDS011;57598;50.888;4.746;2024-01-16T14:17:03;21.50;;;19.77;;
21569;SDS011;57598;50.888;4.746;2024-01-16T14:19:30;20.95;;;19.65;;
21569;SDS011;57598;50.888;4.746;2024-01-16T14:21:59;22.33;;;20.50;;
21569;SDS011;57598;50.888;4.746;2024-01-16T14:24:26;22.88;;;21.17;;
21569;SDS011;57598;50.888;4.746;2024-01-16T14:26:55;21.63;;;20.25;;
21569;SDS011;57598;50.888;4.746;2024-01-16T14:29:22;24.75;;;21.55;;
21569;SDS011;57598;50.888;4.746;2024-01-16T14:31:51;21.52;;;20.20;;
21569;SDS011;57598;50.888;4.746;2024-01-16T14:34:21;21.83;;;20.33;;
21569;SDS011;57598;50.888;4.746;2024-01-16T14:36:50;23.27;;;21.13;;
21569;SDS011;57598;50.888;4.746;2024-01-16T14:39:36;22.92;;;20.77;;
21569;SDS011;57598;50.888;4.746;2024-01-16T14:42:42;20.65;;;19.45;;
21569;SDS011;57598;50.888;4.746;2024-01-16T14:45:27;22.13;;;20.83;;
21569;SDS011;57598;50.888;4.746;2024-01-16T14:47:56;21.60;;;20.40;;
21569;SDS011;57598;50.888;4.746;2024-01-16T14:50:24;24.00;;;21.45;;
21569;SDS011;57598;50.888;4.746;2024-01-16T14:52:52;21.65;;;20.02;;
21569;SDS011;57598;50.888;4.746;2024-01-16T14:55:19;21.42;;;19.85;;
21569;SDS011;57598;50.888;4.746;2024-01-16T14:57:48;23.10;;;21.27;;
21569;SDS011;57598;50.888;4.746;2024-01-16T15:00:18;21.47;;;20.07;;
21569;SDS011;57598;50.888;4.746;2024-01-16T15:02:48;22.30;;;20.83;;
21569;SDS011;57598;50.888;4.746;2024-01-16T15:05:15;20.85;;;19.63;;
21569;SDS011;57598;50.888;4.746;2024-01-16T15:07:44;20.05;;;18.85;;
21569;SDS011;57598;50.888;4.746;2024-01-16T15:10:12;21.73;;;20.15;;
21569;SDS011;57598;50.888;4.746;2024-01-16T15:12:44;23.70;;;21.95;;
21569;SDS011;57598;50.888;4.746;2024-01-16T15:15:16;22.30;;;20.17;;
21569;SDS011;57598;50.888;4.746;2024-01-16T15:17:53;20.90;;;19.70;;
21569;SDS011;57598;50.888;4.746;2024-01-16T15:20:27;19.48;;;18.38;;
21569;SDS011;57598;50.888;4.746;2024-01-16T15:22:55;21.73;;;20.42;;
21569;SDS011;57598;50.888;4.746;2024-01-16T15:25:22;22.17;;;20.45;;
21569;SDS011;57598;50.888;4.746;2024-01-16T15:27:51;21.58;;;20.27;;
21569;SDS011;57598;50.888;4.746;2024-01-16T15:30:21;21.75;;;20.45;;
21569;SDS011;57598;50.888;4.746;2024-01-16T15:32:54;22.00;;;20.73;;
21569;SDS011;57598;50.888;4.746;2024-01-16T15:35:21;24.83;;;22.33;;
21569;SDS011;57598;50.888;4.746;2024-01-16T15:37:49;23.45;;;21.55;;
21569;SDS011;57598;50.888;4.746;2024-01-16T15:42:55;22.25;;;20.95;;
21569;SDS011;57598;50.888;4.746;2024-01-16T15:45:39;22.85;;;21.55;;
21569;SDS011;57598;50.888;4.746;2024-01-16T15:48:19;23.63;;;21.90;;
21569;SDS011;57598;50.888;4.746;2024-01-16T15:51:05;23.05;;;21.45;;
21569;SDS011;57598;50.888;4.746;2024-01-16T15:53:38;23.45;;;21.92;;
21569;SDS011;57598;50.888;4.746;2024-01-16T15:56:20;21.70;;;20.40;;
21569;SDS011;57598;50.888;4.746;2024-01-16T15:58:51;21.02;;;19.83;;
21569;SDS011;57598;50.888;4.746;2024-01-16T16:04:29;21.65;;;20.38;;
21569;SDS011;57598;50.888;4.746;2024-01-16T16:07:10;22.85;;;21.55;;
21569;SDS011;57598;50.888;4.746;2024-01-16T16:09:45;25.35;;;23.63;;
21569;SDS011;57598;50.888;4.746;2024-01-16T16:12:33;20.38;;;19.25;;
21569;SDS011;57598;50.888;4.746;2024-01-16T16:15:53;20.15;;;19.05;;
